This is the latest recevied weather packets stored in our database for station/object KJ6APE. If no packets are shown the sender has not sent any weather packets the latest 10 day(s).
| Time | Temp. | Humidity | Pressure | Rain* | Wind** | Luminosity | Snow |
|---|---|---|---|---|---|---|---|
| 1777931220 | 18.89° C | 49% | 1015.2 hPa | 0 mm | - | 327 W/m² | - |
| 1777930917 | 18.89° C | 51% | 1015.1 hPa | 0 mm | - | 331 W/m² | - |
| 1777930614 | 18.89° C | 49% | 1015.2 hPa | 0 mm | - | 364 W/m² | - |
| 1777930311 | 18.89° C | 50% | 1015.3 hPa | 0 mm | - | 351 W/m² | - |
| 1777930007 | 18.33° C | 50% | 1015.2 hPa | 0 mm | - | 380 W/m² | - |
| 1777929704 | 18.33° C | 51% | 1015.3 hPa | 0 mm | - | 303 W/m² | - |
| 1777929402 | 18.33° C | 53% | 1015.2 hPa | 0 mm | - | 310 W/m² | - |
| 1777929097 | 18.33° C | 51% | 1015.3 hPa | 0 mm | - | 303 W/m² | - |
| 1777928796 | 18.33° C | 51% | 1015.3 hPa | 0 mm | - | 310 W/m² | - |
| 1777928492 | 18.89° C | 51% | 1015.4 hPa | 0 mm | - | 342 W/m² | - |
| 1777928189 | 18.89° C | 52% | 1015.2 hPa | 0 mm | - | 370 W/m² | - |
| 1777927887 | 18.89° C | 53% | 1015.2 hPa | 0 mm | - | 354 W/m² | - |
| 1777927585 | 18.89° C | 51% | 1015.5 hPa | 0 mm | - | 334 W/m² | - |
| 1777927284 | 19.44° C | 52% | 1015.4 hPa | 0 mm | - | 382 W/m² | - |
| 1777926983 | 20° C | 49% | 1015 hPa | 0 mm | - | 523 W/m² | - |
| 1777926680 | 20° C | 50% | 1015 hPa | 0 mm | - | 655 W/m² | - |
| 1777926380 | 20° C | 50% | 1015.1 hPa | 0 mm | - | 649 W/m² | - |
| 1777926077 | 19.44° C | 50% | 1015.3 hPa | 0 mm | - | 646 W/m² | - |
| 1777925774 | 19.44° C | 51% | 1015.2 hPa | 0 mm | - | 719 W/m² | - |
| 1777925472 | 19.44° C | 49% | 1015 hPa | 0 mm | - | 731 W/m² | - |
| 1777925168 | 18.89° C | 49% | 1015.3 hPa | 0 mm | - | 638 W/m² | - |
| 1777924864 | 18.89° C | 51% | 1015.2 hPa | 0 mm | - | 529 W/m² | - |
| 1777924561 | 18.89° C | 49% | 1015.2 hPa | 0 mm | - | 523 W/m² | - |
| 1777924257 | 18.89° C | 51% | 1015.3 hPa | 0 mm | - | 518 W/m² | - |
| 1777923954 | 18.89° C | 51% | 1015.2 hPa | 0 mm | - | 543 W/m² | - |
* Rain latest hour (hover to see other rain measurements)
** Current wind speed in m/s (hover to see current wind gust speed)